sensor_id;sensor_type;location;lat;lon;timestamp;pressure;altitude;pressure_sealevel;temperature;humidity
10897;BME280;5501;51.176;6.470;2023-03-16T00:01:07;57965.28;;;-140.81;100.00
10897;BME280;5501;51.176;6.470;2023-03-16T00:06:08;57965.28;;;-140.81;100.00
10897;BME280;5501;51.176;6.470;2023-03-16T00:11:10;57965.28;;;-140.81;100.00
10897;BME280;5501;51.176;6.470;2023-03-16T00:16:12;57965.28;;;-140.81;100.00
10897;BME280;5501;51.176;6.470;2023-03-16T00:21:17;57965.28;;;-140.81;100.00
10897;BME280;5501;51.176;6.470;2023-03-16T00:26:18;57965.28;;;-140.81;100.00
10897;BME280;5501;51.176;6.470;2023-03-16T00:31:20;57965.28;;;-140.81;100.00
10897;BME280;5501;51.176;6.470;2023-03-16T00:36:25;57965.28;;;-140.81;100.00
10897;BME280;5501;51.176;6.470;2023-03-16T00:41:27;57965.28;;;-140.81;100.00
10897;BME280;5501;51.176;6.470;2023-03-16T00:46:28;57965.28;;;-140.81;100.00
10897;BME280;5501;51.176;6.470;2023-03-16T00:51:29;57965.28;;;-140.81;100.00
10897;BME280;5501;51.176;6.470;2023-03-16T00:56:34;57965.28;;;-140.81;100.00
10897;BME280;5501;51.176;6.470;2023-03-16T01:01:35;57965.28;;;-140.81;100.00
10897;BME280;5501;51.176;6.470;2023-03-16T01:06:38;57965.28;;;-140.81;100.00
10897;BME280;5501;51.176;6.470;2023-03-16T01:11:41;57965.28;;;-140.81;100.00
10897;BME280;5501;51.176;6.470;2023-03-16T01:16:45;57965.28;;;-140.81;100.00
10897;BME280;5501;51.176;6.470;2023-03-16T01:21:47;57965.28;;;-140.81;100.00
10897;BME280;5501;51.176;6.470;2023-03-16T01:26:49;57965.28;;;-140.81;100.00
10897;BME280;5501;51.176;6.470;2023-03-16T01:31:50;57965.28;;;-140.81;100.00
10897;BME280;5501;51.176;6.470;2023-03-16T01:36:53;57965.28;;;-140.81;100.00
10897;BME280;5501;51.176;6.470;2023-03-16T01:42:01;57965.28;;;-140.81;100.00
10897;BME280;5501;51.176;6.470;2023-03-16T01:47:04;57965.28;;;-140.81;100.00
10897;BME280;5501;51.176;6.470;2023-03-16T01:52:09;57965.28;;;-140.81;100.00
10897;BME280;5501;51.176;6.470;2023-03-16T01:57:17;57965.28;;;-140.81;100.00
10897;BME280;5501;51.176;6.470;2023-03-16T02:02:22;57965.28;;;-140.81;100.00
10897;BME280;5501;51.176;6.470;2023-03-16T02:07:26;57965.28;;;-140.81;100.00
10897;BME280;5501;51.176;6.470;2023-03-16T02:12:29;57965.28;;;-140.81;100.00
10897;BME280;5501;51.176;6.470;2023-03-16T02:17:34;57965.28;;;-140.81;100.00
10897;BME280;5501;51.176;6.470;2023-03-16T02:22:46;57965.28;;;-140.81;100.00
10897;BME280;5501;51.176;6.470;2023-03-16T02:32:54;57965.28;;;-140.81;100.00
10897;BME280;5501;51.176;6.470;2023-03-16T02:37:56;57965.28;;;-140.81;100.00
10897;BME280;5501;51.176;6.470;2023-03-16T02:43:16;57965.28;;;-140.81;100.00
10897;BME280;5501;51.176;6.470;2023-03-16T02:48:32;57965.28;;;-140.81;100.00
10897;BME280;5501;51.176;6.470;2023-03-16T02:53:36;57965.28;;;-140.81;100.00
10897;BME280;5501;51.176;6.470;2023-03-16T02:58:37;57965.28;;;-140.81;100.00
10897;BME280;5501;51.176;6.470;2023-03-16T03:03:44;57965.28;;;-140.81;100.00
10897;BME280;5501;51.176;6.470;2023-03-16T03:08:46;57965.28;;;-140.81;100.00
10897;BME280;5501;51.176;6.470;2023-03-16T03:13:48;57965.28;;;-140.81;100.00
10897;BME280;5501;51.176;6.470;2023-03-16T03:18:54;57965.28;;;-140.81;100.00
10897;BME280;5501;51.176;6.470;2023-03-16T03:23:56;57965.28;;;-140.81;100.00
10897;BME280;5501;51.176;6.470;2023-03-16T03:28:58;57965.28;;;-140.81;100.00
10897;BME280;5501;51.176;6.470;2023-03-16T03:33:59;57965.28;;;-140.81;100.00
10897;BME280;5501;51.176;6.470;2023-03-16T03:39:08;57965.28;;;-140.81;100.00
10897;BME280;5501;51.176;6.470;2023-03-16T03:44:10;57965.28;;;-140.81;100.00
10897;BME280;5501;51.176;6.470;2023-03-16T03:49:12;57965.28;;;-140.81;100.00
10897;BME280;5501;51.176;6.470;2023-03-16T03:54:14;57965.28;;;-140.81;100.00
10897;BME280;5501;51.176;6.470;2023-03-16T03:59:21;57965.28;;;-140.81;100.00
10897;BME280;5501;51.176;6.470;2023-03-16T04:04:37;57965.28;;;-140.81;100.00
10897;BME280;5501;51.176;6.470;2023-03-16T04:09:38;57965.28;;;-140.81;100.00
10897;BME280;5501;51.176;6.470;2023-03-16T04:14:42;57965.28;;;-140.81;100.00
10897;BME280;5501;51.176;6.470;2023-03-16T04:19:43;57965.28;;;-140.81;100.00
10897;BME280;5501;51.176;6.470;2023-03-16T04:24:48;57965.28;;;-140.81;100.00
10897;BME280;5501;51.176;6.470;2023-03-16T04:29:50;57965.28;;;-140.81;100.00
10897;BME280;5501;51.176;6.470;2023-03-16T04:34:56;57965.28;;;-140.81;100.00
10897;BME280;5501;51.176;6.470;2023-03-16T04:40:09;57965.28;;;-140.81;100.00
10897;BME280;5501;51.176;6.470;2023-03-16T04:45:22;57965.28;;;-140.81;100.00
10897;BME280;5501;51.176;6.470;2023-03-16T04:50:27;57965.28;;;-140.81;100.00
10897;BME280;5501;51.176;6.470;2023-03-16T04:55:30;57965.28;;;-140.81;100.00
10897;BME280;5501;51.176;6.470;2023-03-16T05:00:31;57965.28;;;-140.81;100.00
10897;BME280;5501;51.176;6.470;2023-03-16T05:05:39;57965.28;;;-140.81;100.00
10897;BME280;5501;51.176;6.470;2023-03-16T05:10:41;57965.28;;;-140.81;100.00
10897;BME280;5501;51.176;6.470;2023-03-16T05:15:44;57965.28;;;-140.81;100.00
10897;BME280;5501;51.176;6.470;2023-03-16T05:20:55;57965.28;;;-140.81;100.00
10897;BME280;5501;51.176;6.470;2023-03-16T05:26:01;57965.28;;;-140.81;100.00
10897;BME280;5501;51.176;6.470;2023-03-16T05:31:05;57965.28;;;-140.81;100.00
10897;BME280;5501;51.176;6.470;2023-03-16T05:36:15;57965.28;;;-140.81;100.00
10897;BME280;5501;51.176;6.470;2023-03-16T05:41:20;57965.28;;;-140.81;100.00
10897;BME280;5501;51.176;6.470;2023-03-16T05:46:32;57965.28;;;-140.81;100.00
10897;BME280;5501;51.176;6.470;2023-03-16T05:51:37;57965.28;;;-140.81;100.00
10897;BME280;5501;51.176;6.470;2023-03-16T05:56:39;57965.28;;;-140.81;100.00
10897;BME280;5501;51.176;6.470;2023-03-16T06:01:41;57965.28;;;-140.81;100.00
10897;BME280;5501;51.176;6.470;2023-03-16T06:06:43;57965.28;;;-140.81;100.00
10897;BME280;5501;51.176;6.470;2023-03-16T06:11:52;57965.28;;;-140.81;100.00
10897;BME280;5501;51.176;6.470;2023-03-16T06:16:54;57965.28;;;-140.81;100.00
10897;BME280;5501;51.176;6.470;2023-03-16T06:21:56;57965.28;;;-140.81;100.00
10897;BME280;5501;51.176;6.470;2023-03-16T06:26:58;57965.28;;;-140.81;100.00
10897;BME280;5501;51.176;6.470;2023-03-16T06:32:06;57965.28;;;-140.81;100.00
10897;BME280;5501;51.176;6.470;2023-03-16T06:37:08;57965.28;;;-140.81;100.00
10897;BME280;5501;51.176;6.470;2023-03-16T06:42:10;57965.28;;;-140.81;100.00
10897;BME280;5501;51.176;6.470;2023-03-16T06:47:12;57965.28;;;-140.81;100.00
10897;BME280;5501;51.176;6.470;2023-03-16T06:52:14;57965.28;;;-140.81;100.00
10897;BME280;5501;51.176;6.470;2023-03-16T06:57:16;57965.28;;;-140.81;100.00
10897;BME280;5501;51.176;6.470;2023-03-16T07:02:17;57965.28;;;-140.81;100.00
10897;BME280;5501;51.176;6.470;2023-03-16T07:07:20;57965.28;;;-140.81;100.00
10897;BME280;5501;51.176;6.470;2023-03-16T07:12:22;57965.28;;;-140.81;100.00
10897;BME280;5501;51.176;6.470;2023-03-16T07:17:23;57965.28;;;-140.81;100.00
10897;BME280;5501;51.176;6.470;2023-03-16T07:22:25;57965.28;;;-140.81;100.00
10897;BME280;5501;51.176;6.470;2023-03-16T07:27:27;57965.28;;;-140.81;100.00
10897;BME280;5501;51.176;6.470;2023-03-16T07:32:32;57965.28;;;-140.81;100.00
10897;BME280;5501;51.176;6.470;2023-03-16T07:37:34;57965.28;;;-140.81;100.00
10897;BME280;5501;51.176;6.470;2023-03-16T07:42:40;57965.28;;;-140.81;100.00
10897;BME280;5501;51.176;6.470;2023-03-16T07:48:02;57965.28;;;-140.81;100.00
10897;BME280;5501;51.176;6.470;2023-03-16T07:53:14;57965.28;;;-140.81;100.00
10897;BME280;5501;51.176;6.470;2023-03-16T07:58:19;57965.28;;;-140.81;100.00
10897;BME280;5501;51.176;6.470;2023-03-16T08:03:23;57965.28;;;-140.81;100.00
10897;BME280;5501;51.176;6.470;2023-03-16T08:08:25;57965.28;;;-140.81;100.00
10897;BME280;5501;51.176;6.470;2023-03-16T08:13:26;57965.28;;;-140.81;100.00
10897;BME280;5501;51.176;6.470;2023-03-16T08:18:28;57965.28;;;-140.81;100.00
10897;BME280;5501;51.176;6.470;2023-03-16T08:23:31;57965.28;;;-140.81;100.00
10897;BME280;5501;51.176;6.470;2023-03-16T08:28:34;57965.28;;;-140.81;100.00
10897;BME280;5501;51.176;6.470;2023-03-16T08:33:42;57965.28;;;-140.81;100.00
10897;BME280;5501;51.176;6.470;2023-03-16T08:38:45;57965.28;;;-140.81;100.00
10897;BME280;5501;51.176;6.470;2023-03-16T08:44:09;57965.28;;;-140.81;100.00
10897;BME280;5501;51.176;6.470;2023-03-16T08:49:11;57965.28;;;-140.81;100.00
10897;BME280;5501;51.176;6.470;2023-03-16T08:54:15;57965.28;;;-140.81;100.00
10897;BME280;5501;51.176;6.470;2023-03-16T08:59:17;57965.28;;;-140.81;100.00
10897;BME280;5501;51.176;6.470;2023-03-16T09:04:30;57965.28;;;-140.81;100.00
10897;BME280;5501;51.176;6.470;2023-03-16T09:09:32;57965.28;;;-140.81;100.00
10897;BME280;5501;51.176;6.470;2023-03-16T09:14:35;57965.28;;;-140.81;54.57
10897;BME280;5501;51.176;6.470;2023-03-16T09:19:38;77918.31;;;-140.81;71.20
10897;BME280;5501;51.176;6.470;2023-03-16T09:24:52;101428.31;;;6.45;71.20
10897;BME280;5501;51.176;6.470;2023-03-16T09:29:53;101094.84;;;8.16;79.72
10897;BME280;5501;51.176;6.470;2023-03-16T09:34:56;101094.84;;;8.16;79.72
10897;BME280;5501;51.176;6.470;2023-03-16T09:39:58;101091.13;;;8.32;78.01
10897;BME280;5501;51.176;6.470;2023-03-16T09:45:23;101091.13;;;8.32;78.01
10897;BME280;5501;51.176;6.470;2023-03-16T09:50:28;101085.38;;;8.65;73.72
10897;BME280;5501;51.176;6.470;2023-03-16T09:55:52;101081.09;;;8.54;72.80
10897;BME280;5501;51.176;6.470;2023-03-16T10:01:11;101072.31;;;8.50;72.90
10897;BME280;5501;51.176;6.470;2023-03-16T10:06:17;101070.25;;;8.72;72.74
10897;BME280;5501;51.176;6.470;2023-03-16T10:11:41;101074.63;;;8.74;71.67
10897;BME280;5501;51.176;6.470;2023-03-16T10:16:49;101071.00;;;8.80;71.54
10897;BME280;5501;51.176;6.470;2023-03-16T10:21:55;101077.88;;;8.94;70.33
10897;BME280;5501;51.176;6.470;2023-03-16T10:26:59;101069.16;;;8.86;70.10
10897;BME280;5501;51.176;6.470;2023-03-16T10:32:12;100994.88;;;8.86;69.69
10897;BME280;5501;51.176;6.470;2023-03-16T10:37:14;101041.50;;;9.51;68.19
10897;BME280;5501;51.176;6.470;2023-03-16T10:42:18;101027.38;;;9.50;67.43
10897;BME280;5501;51.176;6.470;2023-03-16T10:47:28;101026.56;;;9.45;66.12
10897;BME280;5501;51.176;6.470;2023-03-16T10:52:39;101015.09;;;9.43;64.93
10897;BME280;5501;51.176;6.470;2023-03-16T10:57:48;101012.91;;;9.65;63.57
10897;BME280;5501;51.176;6.470;2023-03-16T11:02:52;101006.97;;;9.96;63.97
10897;BME280;5501;51.176;6.470;2023-03-16T11:13:15;100998.75;;;10.08;61.30
10897;BME280;5501;51.176;6.470;2023-03-16T11:18:40;100987.91;;;10.19;64.20
10897;BME280;5501;51.176;6.470;2023-03-16T11:23:47;100983.31;;;10.25;62.51
10897;BME280;5501;51.176;6.470;2023-03-16T11:29:13;100980.00;;;10.54;60.73
10897;BME280;5501;51.176;6.470;2023-03-16T11:34:23;100974.97;;;10.79;59.74
10897;BME280;5501;51.176;6.470;2023-03-16T11:50:00;100933.22;;;10.82;60.24
10897;BME280;5501;51.176;6.470;2023-03-16T12:05:51;100907.56;;;11.44;57.20
10897;BME280;5501;51.176;6.470;2023-03-16T12:10:59;100905.31;;;11.59;58.04
10897;BME280;5501;51.176;6.470;2023-03-16T12:16:16;100901.00;;;11.55;56.43
10897;BME280;5501;51.176;6.470;2023-03-16T12:21:24;100885.78;;;11.62;56.08
10897;BME280;5501;51.176;6.470;2023-03-16T12:26:31;100894.56;;;11.64;57.46
10897;BME280;5501;51.176;6.470;2023-03-16T12:31:46;100872.00;;;11.75;56.71
10897;BME280;5501;51.176;6.470;2023-03-16T12:42:47;100858.44;;;11.84;55.62
10897;BME280;5501;51.176;6.470;2023-03-16T12:47:26;100852.88;;;11.92;57.00
10897;BME280;5501;51.176;6.470;2023-03-16T12:52:45;100840.09;;;12.03;54.90
10897;BME280;5501;51.176;6.470;2023-03-16T12:57:48;100830.72;;;12.17;55.27
10897;BME280;5501;51.176;6.470;2023-03-16T13:02:55;100837.16;;;12.10;54.44
10897;BME280;5501;51.176;6.470;2023-03-16T13:08:26;100830.06;;;12.37;55.08
10897;BME280;5501;51.176;6.470;2023-03-16T13:13:29;100823.47;;;12.73;53.72
10897;BME280;5501;51.176;6.470;2023-03-16T13:18:40;100816.22;;;12.52;53.29
10897;BME280;5501;51.176;6.470;2023-03-16T13:23:58;100799.88;;;12.61;52.55
10897;BME280;5501;51.176;6.470;2023-03-16T13:29:09;100796.69;;;12.76;52.58
10897;BME280;5501;51.176;6.470;2023-03-16T13:34:21;100781.44;;;12.79;53.32
10897;BME280;5501;51.176;6.470;2023-03-16T13:39:28;100783.50;;;12.96;56.88
10897;BME280;5501;51.176;6.470;2023-03-16T13:44:30;100766.38;;;13.26;53.60
10897;BME280;5501;51.176;6.470;2023-03-16T13:49:42;100751.03;;;13.31;53.23
10897;BME280;5501;51.176;6.470;2023-03-16T13:54:43;100743.25;;;13.25;51.50
10897;BME280;5501;51.176;6.470;2023-03-16T13:59:45;100738.25;;;13.16;50.12
10897;BME280;5501;51.176;6.470;2023-03-16T14:04:47;100735.94;;;13.30;51.73
10897;BME280;5501;51.176;6.470;2023-03-16T14:09:49;100726.31;;;13.26;49.92
10897;BME280;5501;51.176;6.470;2023-03-16T14:14:54;100716.78;;;13.19;49.21
10897;BME280;5501;51.176;6.470;2023-03-16T14:19:58;100709.59;;;13.21;49.30
10897;BME280;5501;51.176;6.470;2023-03-16T14:25:00;100696.41;;;13.16;49.21
10897;BME280;5501;51.176;6.470;2023-03-16T14:30:31;100685.56;;;13.21;48.85
10897;BME280;5501;51.176;6.470;2023-03-16T14:35:41;100672.78;;;13.29;49.51
10897;BME280;5501;51.176;6.470;2023-03-16T14:40:57;100676.19;;;13.32;48.22
10897;BME280;5501;51.176;6.470;2023-03-16T14:46:04;100676.69;;;13.42;48.16
10897;BME280;5501;51.176;6.470;2023-03-16T14:51:11;100662.50;;;13.40;48.33
10897;BME280;5501;51.176;6.470;2023-03-16T14:56:13;100653.09;;;13.53;49.64
10897;BME280;5501;51.176;6.470;2023-03-16T15:01:16;100658.28;;;13.56;50.06
10897;BME280;5501;51.176;6.470;2023-03-16T15:06:18;100642.41;;;13.53;48.86
10897;BME280;5501;51.176;6.470;2023-03-16T15:11:21;100633.22;;;13.38;48.82
10897;BME280;5501;51.176;6.470;2023-03-16T15:16:24;100634.06;;;13.39;47.29
10897;BME280;5501;51.176;6.470;2023-03-16T15:21:27;100635.69;;;13.43;47.94
10897;BME280;5501;51.176;6.470;2023-03-16T15:26:31;100626.00;;;13.40;47.87
10897;BME280;5501;51.176;6.470;2023-03-16T15:31:33;100617.94;;;13.42;48.05
10897;BME280;5501;51.176;6.470;2023-03-16T15:36:35;100607.47;;;13.36;49.52
10897;BME280;5501;51.176;6.470;2023-03-16T15:41:37;100607.59;;;13.11;51.17
10897;BME280;5501;51.176;6.470;2023-03-16T15:46:48;100596.97;;;12.87;51.50
10897;BME280;5501;51.176;6.470;2023-03-16T15:51:50;100595.25;;;12.86;52.07
10897;BME280;5501;51.176;6.470;2023-03-16T15:56:51;100594.78;;;12.75;51.89
10897;BME280;5501;51.176;6.470;2023-03-16T16:01:56;100590.50;;;12.71;51.84
10897;BME280;5501;51.176;6.470;2023-03-16T16:06:57;100585.41;;;12.65;52.39
10897;BME280;5501;51.176;6.470;2023-03-16T16:12:00;100597.28;;;12.56;52.25
10897;BME280;5501;51.176;6.470;2023-03-16T16:17:04;100576.94;;;12.54;52.43
10897;BME280;5501;51.176;6.470;2023-03-16T16:22:10;100570.75;;;12.53;53.59
10897;BME280;5501;51.176;6.470;2023-03-16T16:27:13;100572.69;;;12.48;54.07
10897;BME280;5501;51.176;6.470;2023-03-16T16:32:22;100568.69;;;12.37;53.71
10897;BME280;5501;51.176;6.470;2023-03-16T16:37:24;100563.03;;;12.23;54.70
10897;BME280;5501;51.176;6.470;2023-03-16T16:42:25;100567.75;;;12.15;55.45
10897;BME280;5501;51.176;6.470;2023-03-16T16:47:27;100566.97;;;12.11;55.90
10897;BME280;5501;51.176;6.470;2023-03-16T16:52:29;100566.34;;;12.05;56.63
10897;BME280;5501;51.176;6.470;2023-03-16T16:57:31;100566.63;;;11.97;57.32
10897;BME280;5501;51.176;6.470;2023-03-16T17:02:42;100570.97;;;12.00;57.81
10897;BME280;5501;51.176;6.470;2023-03-16T17:07:44;100570.53;;;11.87;59.00
10897;BME280;5501;51.176;6.470;2023-03-16T17:12:46;100572.78;;;11.75;59.47
10897;BME280;5501;51.176;6.470;2023-03-16T17:17:49;100575.69;;;11.92;59.88
10897;BME280;5501;51.176;6.470;2023-03-16T17:22:52;100569.28;;;11.73;60.75
10897;BME280;5501;51.176;6.470;2023-03-16T17:27:56;100568.84;;;11.60;61.48
10897;BME280;5501;51.176;6.470;2023-03-16T17:33:02;100578.81;;;11.80;62.61
10897;BME280;5501;51.176;6.470;2023-03-16T17:38:16;100576.22;;;11.51;62.62
10897;BME280;5501;51.176;6.470;2023-03-16T17:43:20;100581.69;;;11.46;63.63
10897;BME280;5501;51.176;6.470;2023-03-16T17:48:22;100575.28;;;11.27;64.62
10897;BME280;5501;51.176;6.470;2023-03-16T17:53:24;100569.06;;;11.27;65.13
10897;BME280;5501;51.176;6.470;2023-03-16T17:58:28;100577.50;;;11.13;65.73
10897;BME280;5501;51.176;6.470;2023-03-16T18:03:30;100591.13;;;11.03;66.60
10897;BME280;5501;51.176;6.470;2023-03-16T18:08:33;100582.72;;;10.89;67.21
10897;BME280;5501;51.176;6.470;2023-03-16T18:13:38;100578.56;;;10.80;67.90
10897;BME280;5501;51.176;6.470;2023-03-16T18:18:40;100592.00;;;10.76;68.32
10897;BME280;5501;51.176;6.470;2023-03-16T18:23:43;100583.19;;;10.74;68.47
10897;BME280;5501;51.176;6.470;2023-03-16T18:28:45;100572.16;;;10.58;68.78
10897;BME280;5501;51.176;6.470;2023-03-16T18:33:49;100578.34;;;10.58;69.00
10897;BME280;5501;51.176;6.470;2023-03-16T18:38:51;100577.41;;;10.59;68.82
10897;BME280;5501;51.176;6.470;2023-03-16T18:43:56;100582.81;;;10.58;68.61
10897;BME280;5501;51.176;6.470;2023-03-16T18:49:03;100583.25;;;10.43;68.80
10897;BME280;5501;51.176;6.470;2023-03-16T18:54:19;100589.25;;;10.49;68.34
10897;BME280;5501;51.176;6.470;2023-03-16T18:59:20;100589.16;;;10.52;67.81
10897;BME280;5501;51.176;6.470;2023-03-16T19:04:27;100586.91;;;10.39;68.17
10897;BME280;5501;51.176;6.470;2023-03-16T19:09:30;100586.22;;;10.32;68.13
10897;BME280;5501;51.176;6.470;2023-03-16T19:14:32;100584.63;;;10.25;68.09
10897;BME280;5501;51.176;6.470;2023-03-16T19:19:35;100586.56;;;10.20;68.62
10897;BME280;5501;51.176;6.470;2023-03-16T19:24:44;100586.50;;;10.23;68.32
10897;BME280;5501;51.176;6.470;2023-03-16T19:29:46;100598.06;;;10.21;68.72
10897;BME280;5501;51.176;6.470;2023-03-16T19:34:52;100586.19;;;10.02;68.35
10897;BME280;5501;51.176;6.470;2023-03-16T19:39:53;100589.75;;;10.01;68.20
10897;BME280;5501;51.176;6.470;2023-03-16T19:44:55;100584.84;;;10.19;69.27
10897;BME280;5501;51.176;6.470;2023-03-16T19:49:57;100574.75;;;9.98;67.70
10897;BME280;5501;51.176;6.470;2023-03-16T19:54:59;100560.56;;;9.99;67.27
10897;BME280;5501;51.176;6.470;2023-03-16T20:00:01;100552.19;;;9.82;68.06
10897;BME280;5501;51.176;6.470;2023-03-16T20:05:07;100536.16;;;9.85;67.76
10897;BME280;5501;51.176;6.470;2023-03-16T20:10:20;100537.31;;;9.77;67.91
10897;BME280;5501;51.176;6.470;2023-03-16T20:15:27;100531.50;;;9.61;68.62
10897;BME280;5501;51.176;6.470;2023-03-16T20:20:32;100537.53;;;9.68;68.59
10897;BME280;5501;51.176;6.470;2023-03-16T20:25:35;100532.50;;;9.57;69.00
10897;BME280;5501;51.176;6.470;2023-03-16T20:30:37;100526.31;;;9.58;68.76
10897;BME280;5501;51.176;6.470;2023-03-16T20:35:39;100501.66;;;9.53;68.77
10897;BME280;5501;51.176;6.470;2023-03-16T20:40:42;100500.06;;;9.48;69.00
10897;BME280;5501;51.176;6.470;2023-03-16T20:45:44;100493.19;;;9.39;69.55
10897;BME280;5501;51.176;6.470;2023-03-16T20:50:46;100483.97;;;9.52;68.95
10897;BME280;5501;51.176;6.470;2023-03-16T20:55:49;100482.25;;;9.51;69.06
10897;BME280;5501;51.176;6.470;2023-03-16T21:00:53;100474.53;;;9.42;69.16
10897;BME280;5501;51.176;6.470;2023-03-16T21:05:57;100472.28;;;9.27;69.66
10897;BME280;5501;51.176;6.470;2023-03-16T21:11:00;100466.66;;;9.39;69.25
10897;BME280;5501;51.176;6.470;2023-03-16T21:16:02;100453.31;;;9.42;69.16
10897;BME280;5501;51.176;6.470;2023-03-16T21:21:04;100460.69;;;9.31;69.28
10897;BME280;5501;51.176;6.470;2023-03-16T21:26:06;100447.41;;;9.31;69.61
10897;BME280;5501;51.176;6.470;2023-03-16T21:31:14;100458.22;;;9.25;69.68
10897;BME280;5501;51.176;6.470;2023-03-16T21:36:22;100451.06;;;9.27;69.57
10897;BME280;5501;51.176;6.470;2023-03-16T21:41:24;100444.03;;;9.26;69.29
10897;BME280;5501;51.176;6.470;2023-03-16T21:46:26;100436.88;;;9.28;69.73
10897;BME280;5501;51.176;6.470;2023-03-16T21:51:29;100437.56;;;9.35;69.39
10897;BME280;5501;51.176;6.470;2023-03-16T21:56:31;100427.16;;;9.29;69.35
10897;BME280;5501;51.176;6.470;2023-03-16T22:01:35;100414.91;;;9.23;68.98
10897;BME280;5501;51.176;6.470;2023-03-16T22:06:45;100417.75;;;9.17;69.11
10897;BME280;5501;51.176;6.470;2023-03-16T22:11:46;100410.19;;;9.34;68.30
10897;BME280;5501;51.176;6.470;2023-03-16T22:16:48;100415.31;;;9.40;68.33
10897;BME280;5501;51.176;6.470;2023-03-16T22:21:50;100401.56;;;9.26;68.65
10897;BME280;5501;51.176;6.470;2023-03-16T22:26:52;100401.38;;;9.32;68.45
10897;BME280;5501;51.176;6.470;2023-03-16T22:32:02;100408.38;;;9.35;68.22
10897;BME280;5501;51.176;6.470;2023-03-16T22:37:08;100404.69;;;9.40;68.05
10897;BME280;5501;51.176;6.470;2023-03-16T22:42:31;100402.88;;;9.42;67.50
10897;BME280;5501;51.176;6.470;2023-03-16T22:47:36;100390.44;;;9.44;67.54
10897;BME280;5501;51.176;6.470;2023-03-16T22:52:39;100386.78;;;9.48;66.95
10897;BME280;5501;51.176;6.470;2023-03-16T22:57:40;100384.34;;;9.41;67.12
10897;BME280;5501;51.176;6.470;2023-03-16T23:02:42;100388.47;;;9.51;66.78
10897;BME280;5501;51.176;6.470;2023-03-16T23:07:45;100389.97;;;9.61;66.85
10897;BME280;5501;51.176;6.470;2023-03-16T23:12:47;100375.81;;;9.60;66.30
10897;BME280;5501;51.176;6.470;2023-03-16T23:17:50;100359.94;;;9.57;66.79
10897;BME280;5501;51.176;6.470;2023-03-16T23:22:52;100367.03;;;9.58;66.28
10897;BME280;5501;51.176;6.470;2023-03-16T23:27:55;100367.84;;;9.60;66.17
10897;BME280;5501;51.176;6.470;2023-03-16T23:32:57;100374.63;;;9.70;65.81
10897;BME280;5501;51.176;6.470;2023-03-16T23:37:59;100386.41;;;9.60;66.33
10897;BME280;5501;51.176;6.470;2023-03-16T23:43:01;100402.25;;;9.63;66.02
10897;BME280;5501;51.176;6.470;2023-03-16T23:48:05;100416.09;;;9.74;65.44
10897;BME280;5501;51.176;6.470;2023-03-16T23:53:13;100428.47;;;9.75;65.56
10897;BME280;5501;51.176;6.470;2023-03-16T23:58:16;100447.06;;;9.75;65.52
